sensor_id;sensor_type;location;lat;lon;timestamp;P1;durP1;ratioP1;P2;durP2;ratioP2
57025;SDS011;43961;52.940;6.834;2023-02-15T00:00:54;51.97;;;43.58;;
57025;SDS011;43961;52.940;6.834;2023-02-15T00:03:29;57.15;;;45.55;;
57025;SDS011;43961;52.940;6.834;2023-02-15T00:05:56;55.75;;;46.88;;
57025;SDS011;43961;52.940;6.834;2023-02-15T00:08:22;64.18;;;47.05;;
57025;SDS011;43961;52.940;6.834;2023-02-15T00:10:48;54.03;;;43.20;;
57025;SDS011;43961;52.940;6.834;2023-02-15T00:13:13;47.65;;;40.42;;
57025;SDS011;43961;52.940;6.834;2023-02-15T00:15:39;48.75;;;39.78;;
57025;SDS011;43961;52.940;6.834;2023-02-15T00:18:05;49.35;;;40.03;;
57025;SDS011;43961;52.940;6.834;2023-02-15T00:20:30;48.90;;;41.13;;
57025;SDS011;43961;52.940;6.834;2023-02-15T00:22:56;62.53;;;46.78;;
57025;SDS011;43961;52.940;6.834;2023-02-15T00:25:22;68.72;;;48.88;;
57025;SDS011;43961;52.940;6.834;2023-02-15T00:27:48;67.53;;;48.95;;
57025;SDS011;43961;52.940;6.834;2023-02-15T00:30:13;69.35;;;47.83;;
57025;SDS011;43961;52.940;6.834;2023-02-15T00:32:39;69.32;;;49.13;;
57025;SDS011;43961;52.940;6.834;2023-02-15T00:35:05;68.05;;;48.05;;
57025;SDS011;43961;52.940;6.834;2023-02-15T00:37:31;66.47;;;46.75;;
57025;SDS011;43961;52.940;6.834;2023-02-15T00:39:57;60.25;;;44.20;;
57025;SDS011;43961;52.940;6.834;2023-02-15T00:42:23;51.33;;;40.75;;
57025;SDS011;43961;52.940;6.834;2023-02-15T00:44:49;45.22;;;35.90;;
57025;SDS011;43961;52.940;6.834;2023-02-15T00:47:14;44.38;;;34.63;;
57025;SDS011;43961;52.940;6.834;2023-02-15T00:49:40;51.95;;;35.92;;
57025;SDS011;43961;52.940;6.834;2023-02-15T00:52:05;43.13;;;34.30;;
57025;SDS011;43961;52.940;6.834;2023-02-15T00:54:31;48.28;;;35.63;;
57025;SDS011;43961;52.940;6.834;2023-02-15T00:56:57;45.58;;;36.50;;
57025;SDS011;43961;52.940;6.834;2023-02-15T00:59:22;47.47;;;37.50;;
57025;SDS011;43961;52.940;6.834;2023-02-15T01:01:48;45.65;;;37.03;;
57025;SDS011;43961;52.940;6.834;2023-02-15T01:04:15;47.45;;;36.28;;
57025;SDS011;43961;52.940;6.834;2023-02-15T01:06:40;45.05;;;35.40;;
57025;SDS011;43961;52.940;6.834;2023-02-15T01:09:06;47.03;;;36.83;;
57025;SDS011;43961;52.940;6.834;2023-02-15T01:11:31;46.58;;;35.33;;
57025;SDS011;43961;52.940;6.834;2023-02-15T01:13:57;44.72;;;35.33;;
57025;SDS011;43961;52.940;6.834;2023-02-15T01:16:24;41.42;;;34.65;;
57025;SDS011;43961;52.940;6.834;2023-02-15T01:21:20;47.45;;;36.28;;
57025;SDS011;43961;52.940;6.834;2023-02-15T01:23:47;49.63;;;39.88;;
57025;SDS011;43961;52.940;6.834;2023-02-15T01:26:13;51.75;;;39.53;;
57025;SDS011;43961;52.940;6.834;2023-02-15T01:28:39;50.00;;;37.38;;
57025;SDS011;43961;52.940;6.834;2023-02-15T01:31:09;47.30;;;37.90;;
57025;SDS011;43961;52.940;6.834;2023-02-15T01:33:38;53.20;;;39.97;;
57025;SDS011;43961;52.940;6.834;2023-02-15T01:36:04;48.50;;;38.35;;
57025;SDS011;43961;52.940;6.834;2023-02-15T01:38:30;47.42;;;38.45;;
57025;SDS011;43961;52.940;6.834;2023-02-15T01:40:57;47.85;;;37.15;;
57025;SDS011;43961;52.940;6.834;2023-02-15T01:43:42;44.83;;;36.60;;
57025;SDS011;43961;52.940;6.834;2023-02-15T01:46:13;49.90;;;37.83;;
57025;SDS011;43961;52.940;6.834;2023-02-15T01:48:43;50.15;;;37.78;;
57025;SDS011;43961;52.940;6.834;2023-02-15T01:51:12;44.03;;;36.97;;
57025;SDS011;43961;52.940;6.834;2023-02-15T01:53:43;44.47;;;35.92;;
57025;SDS011;43961;52.940;6.834;2023-02-15T01:56:21;45.28;;;35.20;;
57025;SDS011;43961;52.940;6.834;2023-02-15T01:58:50;45.03;;;34.35;;
57025;SDS011;43961;52.940;6.834;2023-02-15T02:01:18;45.03;;;34.92;;
57025;SDS011;43961;52.940;6.834;2023-02-15T02:06:26;54.88;;;36.92;;
57025;SDS011;43961;52.940;6.834;2023-02-15T02:08:52;48.05;;;36.03;;
57025;SDS011;43961;52.940;6.834;2023-02-15T02:11:20;42.35;;;35.30;;
57025;SDS011;43961;52.940;6.834;2023-02-15T02:13:47;47.00;;;38.70;;
57025;SDS011;43961;52.940;6.834;2023-02-15T02:16:16;47.63;;;37.42;;
57025;SDS011;43961;52.940;6.834;2023-02-15T02:21:44;50.22;;;41.10;;
57025;SDS011;43961;52.940;6.834;2023-02-15T02:33:07;59.22;;;39.67;;
57025;SDS011;43961;52.940;6.834;2023-02-15T02:35:53;48.80;;;37.33;;
57025;SDS011;43961;52.940;6.834;2023-02-15T02:39:06;47.58;;;38.58;;
57025;SDS011;43961;52.940;6.834;2023-02-15T02:41:55;51.20;;;39.70;;
57025;SDS011;43961;52.940;6.834;2023-02-15T02:44:43;51.95;;;40.88;;
57025;SDS011;43961;52.940;6.834;2023-02-15T02:47:22;58.95;;;44.33;;
57025;SDS011;43961;52.940;6.834;2023-02-15T02:50:04;57.30;;;45.15;;
57025;SDS011;43961;52.940;6.834;2023-02-15T02:55:07;54.85;;;44.45;;
57025;SDS011;43961;52.940;6.834;2023-02-15T03:00:18;52.70;;;42.35;;
57025;SDS011;43961;52.940;6.834;2023-02-15T03:02:47;57.83;;;44.00;;
57025;SDS011;43961;52.940;6.834;2023-02-15T03:05:18;69.85;;;50.97;;
57025;SDS011;43961;52.940;6.834;2023-02-15T03:07:49;66.95;;;47.45;;
57025;SDS011;43961;52.940;6.834;2023-02-15T03:10:17;62.50;;;45.85;;
57025;SDS011;43961;52.940;6.834;2023-02-15T03:12:46;57.95;;;44.95;;
57025;SDS011;43961;52.940;6.834;2023-02-15T03:15:18;56.35;;;43.90;;
57025;SDS011;43961;52.940;6.834;2023-02-15T03:17:55;58.20;;;44.45;;
57025;SDS011;43961;52.940;6.834;2023-02-15T03:20:31;49.67;;;39.67;;
57025;SDS011;43961;52.940;6.834;2023-02-15T03:23:18;55.97;;;42.42;;
57025;SDS011;43961;52.940;6.834;2023-02-15T03:25:49;57.38;;;45.63;;
57025;SDS011;43961;52.940;6.834;2023-02-15T03:28:19;62.75;;;47.25;;
57025;SDS011;43961;52.940;6.834;2023-02-15T03:30:52;66.25;;;47.53;;
57025;SDS011;43961;52.940;6.834;2023-02-15T03:33:21;54.70;;;45.08;;
57025;SDS011;43961;52.940;6.834;2023-02-15T03:35:49;52.42;;;42.50;;
57025;SDS011;43961;52.940;6.834;2023-02-15T03:38:47;55.92;;;44.25;;
57025;SDS011;43961;52.940;6.834;2023-02-15T03:41:16;53.17;;;43.60;;
57025;SDS011;43961;52.940;6.834;2023-02-15T03:43:49;62.63;;;48.10;;
57025;SDS011;43961;52.940;6.834;2023-02-15T03:49:01;80.85;;;52.72;;
57025;SDS011;43961;52.940;6.834;2023-02-15T03:51:33;76.18;;;55.80;;
57025;SDS011;43961;52.940;6.834;2023-02-15T03:54:01;68.55;;;53.35;;
57025;SDS011;43961;52.940;6.834;2023-02-15T03:56:31;66.30;;;49.03;;
57025;SDS011;43961;52.940;6.834;2023-02-15T03:58:59;58.85;;;45.80;;
57025;SDS011;43961;52.940;6.834;2023-02-15T04:04:46;69.95;;;50.03;;
57025;SDS011;43961;52.940;6.834;2023-02-15T04:07:12;79.03;;;57.28;;
57025;SDS011;43961;52.940;6.834;2023-02-15T04:09:38;81.22;;;62.90;;
57025;SDS011;43961;52.940;6.834;2023-02-15T04:12:23;83.18;;;61.15;;
57025;SDS011;43961;52.940;6.834;2023-02-15T04:14:49;86.03;;;64.57;;
57025;SDS011;43961;52.940;6.834;2023-02-15T04:17:33;84.70;;;62.50;;
57025;SDS011;43961;52.940;6.834;2023-02-15T04:20:00;78.50;;;57.53;;
57025;SDS011;43961;52.940;6.834;2023-02-15T04:22:44;77.80;;;58.42;;
57025;SDS011;43961;52.940;6.834;2023-02-15T04:25:28;88.10;;;65.57;;
57025;SDS011;43961;52.940;6.834;2023-02-15T04:27:54;89.07;;;64.30;;
57025;SDS011;43961;52.940;6.834;2023-02-15T04:30:24;94.05;;;63.88;;
57025;SDS011;43961;52.940;6.834;2023-02-15T04:32:50;120.03;;;74.90;;
57025;SDS011;43961;52.940;6.834;2023-02-15T04:35:16;103.63;;;71.20;;
57025;SDS011;43961;52.940;6.834;2023-02-15T04:37:43;100.93;;;69.55;;
57025;SDS011;43961;52.940;6.834;2023-02-15T04:40:10;125.55;;;73.53;;
57025;SDS011;43961;52.940;6.834;2023-02-15T04:42:38;129.60;;;79.15;;
57025;SDS011;43961;52.940;6.834;2023-02-15T04:45:04;124.72;;;79.53;;
57025;SDS011;43961;52.940;6.834;2023-02-15T04:47:30;121.50;;;77.28;;
57025;SDS011;43961;52.940;6.834;2023-02-15T04:49:56;126.05;;;82.45;;
57025;SDS011;43961;52.940;6.834;2023-02-15T04:52:22;122.32;;;82.20;;
57025;SDS011;43961;52.940;6.834;2023-02-15T04:54:48;119.82;;;79.18;;
57025;SDS011;43961;52.940;6.834;2023-02-15T04:57:13;123.63;;;81.05;;
57025;SDS011;43961;52.940;6.834;2023-02-15T04:59:39;118.40;;;76.60;;
57025;SDS011;43961;52.940;6.834;2023-02-15T05:02:05;125.00;;;81.05;;
57025;SDS011;43961;52.940;6.834;2023-02-15T05:04:30;127.70;;;83.07;;
57025;SDS011;43961;52.940;6.834;2023-02-15T05:06:56;119.80;;;80.07;;
57025;SDS011;43961;52.940;6.834;2023-02-15T05:09:22;119.25;;;76.70;;
57025;SDS011;43961;52.940;6.834;2023-02-15T05:11:48;115.45;;;72.68;;
57025;SDS011;43961;52.940;6.834;2023-02-15T05:14:13;110.28;;;70.65;;
57025;SDS011;43961;52.940;6.834;2023-02-15T05:16:39;109.47;;;71.97;;
57025;SDS011;43961;52.940;6.834;2023-02-15T05:19:05;115.68;;;75.50;;
57025;SDS011;43961;52.940;6.834;2023-02-15T05:21:31;109.20;;;72.57;;
57025;SDS011;43961;52.940;6.834;2023-02-15T05:23:57;113.97;;;71.50;;
57025;SDS011;43961;52.940;6.834;2023-02-15T05:26:23;104.80;;;66.40;;
57025;SDS011;43961;52.940;6.834;2023-02-15T05:29:09;94.80;;;63.80;;
57025;SDS011;43961;52.940;6.834;2023-02-15T05:31:35;88.63;;;58.83;;
57025;SDS011;43961;52.940;6.834;2023-02-15T05:34:01;86.00;;;58.70;;
57025;SDS011;43961;52.940;6.834;2023-02-15T05:36:28;81.95;;;56.22;;
57025;SDS011;43961;52.940;6.834;2023-02-15T05:38:54;76.30;;;53.10;;
57025;SDS011;43961;52.940;6.834;2023-02-15T05:41:21;77.47;;;52.58;;
57025;SDS011;43961;52.940;6.834;2023-02-15T05:43:47;65.28;;;47.85;;
57025;SDS011;43961;52.940;6.834;2023-02-15T05:46:12;60.33;;;47.47;;
57025;SDS011;43961;52.940;6.834;2023-02-15T05:48:38;65.13;;;48.55;;
57025;SDS011;43961;52.940;6.834;2023-02-15T05:51:05;64.38;;;50.33;;
57025;SDS011;43961;52.940;6.834;2023-02-15T05:53:33;67.82;;;50.72;;
57025;SDS011;43961;52.940;6.834;2023-02-15T05:56:00;65.30;;;52.88;;
57025;SDS011;43961;52.940;6.834;2023-02-15T05:58:33;71.00;;;54.67;;
57025;SDS011;43961;52.940;6.834;2023-02-15T06:01:14;77.15;;;58.42;;
57025;SDS011;43961;52.940;6.834;2023-02-15T06:03:42;74.93;;;55.97;;
57025;SDS011;43961;52.940;6.834;2023-02-15T06:06:08;74.78;;;58.00;;
57025;SDS011;43961;52.940;6.834;2023-02-15T06:08:34;84.43;;;61.78;;
57025;SDS011;43961;52.940;6.834;2023-02-15T06:11:01;81.05;;;60.03;;
57025;SDS011;43961;52.940;6.834;2023-02-15T06:13:28;83.00;;;58.22;;
57025;SDS011;43961;52.940;6.834;2023-02-15T06:15:54;89.10;;;61.58;;
57025;SDS011;43961;52.940;6.834;2023-02-15T06:18:19;77.55;;;57.50;;
57025;SDS011;43961;52.940;6.834;2023-02-15T06:20:46;81.35;;;59.22;;
57025;SDS011;43961;52.940;6.834;2023-02-15T06:23:12;82.95;;;58.20;;
57025;SDS011;43961;52.940;6.834;2023-02-15T06:25:38;79.13;;;58.15;;
57025;SDS011;43961;52.940;6.834;2023-02-15T06:28:04;84.22;;;60.95;;
57025;SDS011;43961;52.940;6.834;2023-02-15T06:30:30;84.75;;;61.88;;
57025;SDS011;43961;52.940;6.834;2023-02-15T06:32:56;82.05;;;60.00;;
57025;SDS011;43961;52.940;6.834;2023-02-15T06:35:22;82.95;;;59.50;;
57025;SDS011;43961;52.940;6.834;2023-02-15T06:37:48;86.25;;;61.42;;
57025;SDS011;43961;52.940;6.834;2023-02-15T06:40:14;88.85;;;61.28;;
57025;SDS011;43961;52.940;6.834;2023-02-15T06:42:40;87.25;;;60.10;;
57025;SDS011;43961;52.940;6.834;2023-02-15T06:45:07;84.82;;;60.55;;
57025;SDS011;43961;52.940;6.834;2023-02-15T06:47:33;85.25;;;60.10;;
57025;SDS011;43961;52.940;6.834;2023-02-15T06:49:59;82.85;;;58.35;;
57025;SDS011;43961;52.940;6.834;2023-02-15T06:52:25;78.82;;;57.70;;
57025;SDS011;43961;52.940;6.834;2023-02-15T06:54:51;83.25;;;61.67;;
57025;SDS011;43961;52.940;6.834;2023-02-15T06:57:16;79.93;;;58.95;;
57025;SDS011;43961;52.940;6.834;2023-02-15T06:59:42;92.30;;;62.80;;
57025;SDS011;43961;52.940;6.834;2023-02-15T07:02:08;117.82;;;67.82;;
57025;SDS011;43961;52.940;6.834;2023-02-15T07:04:36;80.05;;;60.45;;
57025;SDS011;43961;52.940;6.834;2023-02-15T07:07:02;70.30;;;56.53;;
57025;SDS011;43961;52.940;6.834;2023-02-15T07:09:27;80.22;;;59.53;;
57025;SDS011;43961;52.940;6.834;2023-02-15T07:11:53;71.13;;;56.88;;
57025;SDS011;43961;52.940;6.834;2023-02-15T07:14:37;90.32;;;59.97;;
57025;SDS011;43961;52.940;6.834;2023-02-15T07:17:03;75.75;;;56.55;;
57025;SDS011;43961;52.940;6.834;2023-02-15T07:19:29;80.75;;;56.53;;
57025;SDS011;43961;52.940;6.834;2023-02-15T07:21:55;84.28;;;58.22;;
57025;SDS011;43961;52.940;6.834;2023-02-15T07:24:20;76.97;;;56.97;;
57025;SDS011;43961;52.940;6.834;2023-02-15T07:26:46;75.20;;;53.90;;
57025;SDS011;43961;52.940;6.834;2023-02-15T07:29:13;83.63;;;56.63;;
57025;SDS011;43961;52.940;6.834;2023-02-15T07:31:39;72.32;;;54.17;;
57025;SDS011;43961;52.940;6.834;2023-02-15T07:34:05;70.90;;;53.15;;
57025;SDS011;43961;52.940;6.834;2023-02-15T07:36:31;72.05;;;54.45;;
57025;SDS011;43961;52.940;6.834;2023-02-15T07:38:57;79.80;;;59.22;;
57025;SDS011;43961;52.940;6.834;2023-02-15T07:41:23;75.55;;;56.35;;
57025;SDS011;43961;52.940;6.834;2023-02-15T07:43:48;84.95;;;58.92;;
57025;SDS011;43961;52.940;6.834;2023-02-15T07:46:15;73.50;;;55.05;;
57025;SDS011;43961;52.940;6.834;2023-02-15T07:48:42;79.20;;;61.83;;
57025;SDS011;43961;52.940;6.834;2023-02-15T07:51:10;82.60;;;62.45;;
57025;SDS011;43961;52.940;6.834;2023-02-15T07:53:37;81.22;;;59.30;;
57025;SDS011;43961;52.940;6.834;2023-02-15T07:56:04;73.82;;;54.50;;
57025;SDS011;43961;52.940;6.834;2023-02-15T07:58:32;87.32;;;64.00;;
57025;SDS011;43961;52.940;6.834;2023-02-15T08:01:21;93.88;;;67.45;;
57025;SDS011;43961;52.940;6.834;2023-02-15T08:03:47;100.05;;;72.05;;
57025;SDS011;43961;52.940;6.834;2023-02-15T08:06:13;89.13;;;70.15;;
57025;SDS011;43961;52.940;6.834;2023-02-15T08:08:39;88.97;;;68.80;;
57025;SDS011;43961;52.940;6.834;2023-02-15T08:14:01;89.47;;;66.53;;
57025;SDS011;43961;52.940;6.834;2023-02-15T08:16:36;93.30;;;67.55;;
57025;SDS011;43961;52.940;6.834;2023-02-15T08:22:07;93.97;;;66.05;;
57025;SDS011;43961;52.940;6.834;2023-02-15T08:24:35;79.80;;;64.70;;
57025;SDS011;43961;52.940;6.834;2023-02-15T08:27:02;88.60;;;66.20;;
57025;SDS011;43961;52.940;6.834;2023-02-15T08:29:30;102.38;;;72.30;;
57025;SDS011;43961;52.940;6.834;2023-02-15T08:31:57;94.15;;;64.53;;
57025;SDS011;43961;52.940;6.834;2023-02-15T08:34:27;107.15;;;72.38;;
57025;SDS011;43961;52.940;6.834;2023-02-15T08:39:21;117.60;;;71.97;;
57025;SDS011;43961;52.940;6.834;2023-02-15T08:41:47;105.03;;;70.32;;
57025;SDS011;43961;52.940;6.834;2023-02-15T08:44:14;120.95;;;76.05;;
57025;SDS011;43961;52.940;6.834;2023-02-15T08:46:42;132.05;;;77.95;;
57025;SDS011;43961;52.940;6.834;2023-02-15T08:49:09;118.07;;;77.55;;
57025;SDS011;43961;52.940;6.834;2023-02-15T08:51:39;117.03;;;75.68;;
57025;SDS011;43961;52.940;6.834;2023-02-15T08:54:06;123.07;;;78.28;;
57025;SDS011;43961;52.940;6.834;2023-02-15T08:56:35;126.57;;;83.82;;
57025;SDS011;43961;52.940;6.834;2023-02-15T08:59:03;217.60;;;116.63;;
57025;SDS011;43961;52.940;6.834;2023-02-15T09:01:31;149.80;;;99.53;;
57025;SDS011;43961;52.940;6.834;2023-02-15T09:03:58;132.82;;;83.72;;
57025;SDS011;43961;52.940;6.834;2023-02-15T09:06:35;127.90;;;82.10;;
57025;SDS011;43961;52.940;6.834;2023-02-15T09:09:02;131.43;;;85.55;;
57025;SDS011;43961;52.940;6.834;2023-02-15T09:11:29;131.80;;;83.88;;
57025;SDS011;43961;52.940;6.834;2023-02-15T09:14:31;157.68;;;92.75;;
57025;SDS011;43961;52.940;6.834;2023-02-15T09:16:51;125.85;;;81.18;;
57025;SDS011;43961;52.940;6.834;2023-02-15T09:19:18;141.27;;;80.07;;
57025;SDS011;43961;52.940;6.834;2023-02-15T09:21:45;154.45;;;99.35;;
57025;SDS011;43961;52.940;6.834;2023-02-15T09:24:13;124.07;;;78.15;;
57025;SDS011;43961;52.940;6.834;2023-02-15T09:26:42;124.00;;;76.28;;
57025;SDS011;43961;52.940;6.834;2023-02-15T09:29:09;122.40;;;73.28;;
57025;SDS011;43961;52.940;6.834;2023-02-15T09:31:37;114.20;;;73.10;;
57025;SDS011;43961;52.940;6.834;2023-02-15T09:34:09;111.60;;;73.05;;
57025;SDS011;43961;52.940;6.834;2023-02-15T09:36:37;103.00;;;71.28;;
57025;SDS011;43961;52.940;6.834;2023-02-15T09:53:17;114.32;;;77.13;;
57025;SDS011;43961;52.940;6.834;2023-02-15T10:01:33;96.55;;;68.38;;
57025;SDS011;43961;52.940;6.834;2023-02-15T10:27:59;96.43;;;63.47;;
57025;SDS011;43961;52.940;6.834;2023-02-15T10:30:39;94.50;;;65.75;;
57025;SDS011;43961;52.940;6.834;2023-02-15T10:33:34;90.10;;;63.85;;
57025;SDS011;43961;52.940;6.834;2023-02-15T10:36:09;98.97;;;63.05;;
57025;SDS011;43961;52.940;6.834;2023-02-15T10:41:28;87.30;;;61.10;;
57025;SDS011;43961;52.940;6.834;2023-02-15T10:50:03;80.00;;;58.40;;
57025;SDS011;43961;52.940;6.834;2023-02-15T10:52:57;78.78;;;58.85;;
57025;SDS011;43961;52.940;6.834;2023-02-15T11:08:29;88.45;;;57.28;;
57025;SDS011;43961;52.940;6.834;2023-02-15T11:11:05;84.07;;;55.83;;
57025;SDS011;43961;52.940;6.834;2023-02-15T11:13:36;80.30;;;53.67;;
57025;SDS011;43961;52.940;6.834;2023-02-15T11:21:45;76.60;;;53.42;;
57025;SDS011;43961;52.940;6.834;2023-02-15T11:24:16;76.40;;;55.35;;
57025;SDS011;43961;52.940;6.834;2023-02-15T11:26:55;78.22;;;54.50;;
57025;SDS011;43961;52.940;6.834;2023-02-15T11:32:26;73.30;;;51.47;;
57025;SDS011;43961;52.940;6.834;2023-02-15T11:35:04;75.43;;;50.17;;
57025;SDS011;43961;52.940;6.834;2023-02-15T11:37:37;70.45;;;48.53;;
57025;SDS011;43961;52.940;6.834;2023-02-15T11:42:48;70.35;;;49.88;;
57025;SDS011;43961;52.940;6.834;2023-02-15T11:47:41;66.25;;;46.45;;
57025;SDS011;43961;52.940;6.834;2023-02-15T11:50:14;68.30;;;48.70;;
57025;SDS011;43961;52.940;6.834;2023-02-15T11:52:43;69.70;;;49.33;;
57025;SDS011;43961;52.940;6.834;2023-02-15T11:55:12;71.18;;;49.28;;
57025;SDS011;43961;52.940;6.834;2023-02-15T11:57:43;68.60;;;49.40;;
57025;SDS011;43961;52.940;6.834;2023-02-15T12:03:01;75.50;;;50.15;;
57025;SDS011;43961;52.940;6.834;2023-02-15T12:05:42;73.45;;;51.97;;
57025;SDS011;43961;52.940;6.834;2023-02-15T12:10:58;71.97;;;49.58;;
57025;SDS011;43961;52.940;6.834;2023-02-15T12:13:29;80.57;;;50.70;;
57025;SDS011;43961;52.940;6.834;2023-02-15T12:15:55;76.40;;;52.65;;
57025;SDS011;43961;52.940;6.834;2023-02-15T12:21:11;71.72;;;50.20;;
57025;SDS011;43961;52.940;6.834;2023-02-15T12:23:50;72.95;;;51.83;;
57025;SDS011;43961;52.940;6.834;2023-02-15T12:26:27;70.72;;;50.42;;
57025;SDS011;43961;52.940;6.834;2023-02-15T12:28:55;73.65;;;50.45;;
57025;SDS011;43961;52.940;6.834;2023-02-15T12:31:38;72.97;;;48.25;;
57025;SDS011;43961;52.940;6.834;2023-02-15T12:34:13;74.10;;;50.63;;
57025;SDS011;43961;52.940;6.834;2023-02-15T12:36:55;76.95;;;47.63;;
57025;SDS011;43961;52.940;6.834;2023-02-15T12:39:25;66.80;;;47.45;;
57025;SDS011;43961;52.940;6.834;2023-02-15T12:44:19;72.15;;;47.85;;
57025;SDS011;43961;52.940;6.834;2023-02-15T12:47:31;70.57;;;47.22;;
57025;SDS011;43961;52.940;6.834;2023-02-15T12:49:40;70.03;;;48.47;;
57025;SDS011;43961;52.940;6.834;2023-02-15T12:52:22;72.68;;;49.05;;
57025;SDS011;43961;52.940;6.834;2023-02-15T12:54:49;76.93;;;48.10;;
57025;SDS011;43961;52.940;6.834;2023-02-15T12:59:56;66.88;;;44.03;;
57025;SDS011;43961;52.940;6.834;2023-02-15T13:02:44;67.38;;;46.25;;
57025;SDS011;43961;52.940;6.834;2023-02-15T13:08:08;72.43;;;45.67;;
57025;SDS011;43961;52.940;6.834;2023-02-15T13:10:51;75.55;;;43.28;;
57025;SDS011;43961;52.940;6.834;2023-02-15T13:13:26;70.15;;;44.22;;
57025;SDS011;43961;52.940;6.834;2023-02-15T13:15:58;65.65;;;45.50;;
57025;SDS011;43961;52.940;6.834;2023-02-15T13:21:11;70.13;;;42.33;;
57025;SDS011;43961;52.940;6.834;2023-02-15T13:26:38;61.55;;;41.65;;
57025;SDS011;43961;52.940;6.834;2023-02-15T13:29:13;67.10;;;43.97;;
57025;SDS011;43961;52.940;6.834;2023-02-15T13:31:51;60.88;;;42.20;;
57025;SDS011;43961;52.940;6.834;2023-02-15T13:45:09;66.68;;;40.90;;
57025;SDS011;43961;52.940;6.834;2023-02-15T13:48:14;66.30;;;42.55;;
57025;SDS011;43961;52.940;6.834;2023-02-15T13:56:26;63.17;;;42.65;;
57025;SDS011;43961;52.940;6.834;2023-02-15T14:10:29;62.92;;;44.28;;
57025;SDS011;43961;52.940;6.834;2023-02-15T14:13:20;70.32;;;44.75;;
57025;SDS011;43961;52.940;6.834;2023-02-15T14:16:09;60.10;;;41.72;;
57025;SDS011;43961;52.940;6.834;2023-02-15T14:18:46;65.10;;;41.22;;
57025;SDS011;43961;52.940;6.834;2023-02-15T14:21:30;66.25;;;41.35;;
57025;SDS011;43961;52.940;6.834;2023-02-15T14:27:21;70.53;;;40.28;;
57025;SDS011;43961;52.940;6.834;2023-02-15T14:30:02;66.28;;;42.20;;
57025;SDS011;43961;52.940;6.834;2023-02-15T14:35:12;62.75;;;41.17;;
57025;SDS011;43961;52.940;6.834;2023-02-15T14:37:49;58.58;;;41.17;;
57025;SDS011;43961;52.940;6.834;2023-02-15T14:40:45;68.18;;;41.53;;
57025;SDS011;43961;52.940;6.834;2023-02-15T14:48:54;64.38;;;41.25;;
57025;SDS011;43961;52.940;6.834;2023-02-15T14:54:08;61.28;;;41.58;;
57025;SDS011;43961;52.940;6.834;2023-02-15T14:56:35;63.25;;;40.42;;
57025;SDS011;43961;52.940;6.834;2023-02-15T14:59:14;55.78;;;40.88;;
57025;SDS011;43961;52.940;6.834;2023-02-15T15:01:50;57.35;;;39.88;;
57025;SDS011;43961;52.940;6.834;2023-02-15T15:04:26;62.58;;;41.13;;
57025;SDS011;43961;52.940;6.834;2023-02-15T15:07:00;65.50;;;44.28;;
57025;SDS011;43961;52.940;6.834;2023-02-15T15:09:33;67.97;;;42.60;;
57025;SDS011;43961;52.940;6.834;2023-02-15T15:12:15;69.07;;;46.05;;
57025;SDS011;43961;52.940;6.834;2023-02-15T15:15:00;75.45;;;51.25;;
57025;SDS011;43961;52.940;6.834;2023-02-15T15:22:50;64.45;;;46.30;;
57025;SDS011;43961;52.940;6.834;2023-02-15T15:28:02;71.20;;;47.13;;
57025;SDS011;43961;52.940;6.834;2023-02-15T15:46:20;63.42;;;45.45;;
57025;SDS011;43961;52.940;6.834;2023-02-15T15:49:17;64.97;;;43.78;;
57025;SDS011;43961;52.940;6.834;2023-02-15T15:51:45;69.93;;;43.00;;
57025;SDS011;43961;52.940;6.834;2023-02-15T15:54:16;65.03;;;42.47;;
57025;SDS011;43961;52.940;6.834;2023-02-15T15:56:51;59.90;;;43.30;;
57025;SDS011;43961;52.940;6.834;2023-02-15T15:59:24;62.45;;;42.58;;
57025;SDS011;43961;52.940;6.834;2023-02-15T16:01:51;56.80;;;40.65;;
57025;SDS011;43961;52.940;6.834;2023-02-15T16:06:57;67.55;;;43.33;;
57025;SDS011;43961;52.940;6.834;2023-02-15T16:09:38;66.10;;;44.03;;
57025;SDS011;43961;52.940;6.834;2023-02-15T16:12:04;69.97;;;43.03;;
57025;SDS011;43961;52.940;6.834;2023-02-15T16:14:39;69.05;;;45.80;;
57025;SDS011;43961;52.940;6.834;2023-02-15T16:17:07;61.05;;;43.25;;
57025;SDS011;43961;52.940;6.834;2023-02-15T16:19:41;62.88;;;43.17;;
57025;SDS011;43961;52.940;6.834;2023-02-15T16:22:10;68.00;;;43.55;;
57025;SDS011;43961;52.940;6.834;2023-02-15T16:25:07;68.88;;;44.05;;
57025;SDS011;43961;52.940;6.834;2023-02-15T16:27:49;55.83;;;40.30;;
57025;SDS011;43961;52.940;6.834;2023-02-15T16:32:45;54.30;;;38.08;;
57025;SDS011;43961;52.940;6.834;2023-02-15T16:35:17;54.13;;;38.10;;
57025;SDS011;43961;52.940;6.834;2023-02-15T16:37:44;64.53;;;39.75;;
57025;SDS011;43961;52.940;6.834;2023-02-15T16:42:51;72.05;;;43.38;;
57025;SDS011;43961;52.940;6.834;2023-02-15T16:45:21;62.17;;;40.92;;
57025;SDS011;43961;52.940;6.834;2023-02-15T16:47:51;69.93;;;43.30;;
57025;SDS011;43961;52.940;6.834;2023-02-15T16:50:22;65.30;;;42.53;;
57025;SDS011;43961;52.940;6.834;2023-02-15T16:52:51;63.83;;;44.08;;
57025;SDS011;43961;52.940;6.834;2023-02-15T16:55:21;64.90;;;41.40;;
57025;SDS011;43961;52.940;6.834;2023-02-15T16:57:56;74.22;;;44.47;;
57025;SDS011;43961;52.940;6.834;2023-02-15T17:00:26;71.85;;;45.90;;
57025;SDS011;43961;52.940;6.834;2023-02-15T17:03:03;70.95;;;47.78;;
57025;SDS011;43961;52.940;6.834;2023-02-15T17:19:01;65.05;;;43.42;;
57025;SDS011;43961;52.940;6.834;2023-02-15T17:21:33;66.80;;;43.88;;
57025;SDS011;43961;52.940;6.834;2023-02-15T17:24:05;67.22;;;41.53;;
57025;SDS011;43961;52.940;6.834;2023-02-15T17:26:34;62.13;;;40.97;;
57025;SDS011;43961;52.940;6.834;2023-02-15T17:29:12;62.17;;;41.65;;
57025;SDS011;43961;52.940;6.834;2023-02-15T17:31:54;67.50;;;44.63;;
57025;SDS011;43961;52.940;6.834;2023-02-15T17:37:13;67.22;;;44.47;;
57025;SDS011;43961;52.940;6.834;2023-02-15T17:39:50;67.57;;;45.25;;
57025;SDS011;43961;52.940;6.834;2023-02-15T17:42:16;73.25;;;44.08;;
57025;SDS011;43961;52.940;6.834;2023-02-15T17:44:42;63.97;;;43.17;;
57025;SDS011;43961;52.940;6.834;2023-02-15T17:47:09;76.90;;;46.72;;
57025;SDS011;43961;52.940;6.834;2023-02-15T17:49:39;71.25;;;46.70;;
57025;SDS011;43961;52.940;6.834;2023-02-15T17:52:05;68.35;;;46.15;;
57025;SDS011;43961;52.940;6.834;2023-02-15T17:54:34;66.20;;;47.30;;
57025;SDS011;43961;52.940;6.834;2023-02-15T17:57:18;71.90;;;47.08;;
57025;SDS011;43961;52.940;6.834;2023-02-15T17:59:43;67.68;;;46.90;;
57025;SDS011;43961;52.940;6.834;2023-02-15T18:02:29;66.90;;;45.55;;
57025;SDS011;43961;52.940;6.834;2023-02-15T18:05:18;80.65;;;50.17;;
57025;SDS011;43961;52.940;6.834;2023-02-15T18:08:02;71.38;;;47.88;;
57025;SDS011;43961;52.940;6.834;2023-02-15T18:10:46;67.70;;;47.38;;
57025;SDS011;43961;52.940;6.834;2023-02-15T18:13:31;72.57;;;49.40;;
57025;SDS011;43961;52.940;6.834;2023-02-15T18:15:56;72.75;;;47.67;;
57025;SDS011;43961;52.940;6.834;2023-02-15T18:18:22;66.55;;;45.08;;
57025;SDS011;43961;52.940;6.834;2023-02-15T18:20:48;64.10;;;42.67;;
57025;SDS011;43961;52.940;6.834;2023-02-15T18:23:14;69.95;;;47.35;;
57025;SDS011;43961;52.940;6.834;2023-02-15T18:25:40;70.75;;;47.65;;
57025;SDS011;43961;52.940;6.834;2023-02-15T18:28:07;68.00;;;45.90;;